Time;durP1;ratioP1;P1;durP2;ratioP2;P2;SDS_P1;SDS_P2;PMS_P1;PMS_P2;Temp;Humidity;BMP_temperature;BMP_pressure;BME280_temperature;BME280_humidity;BME280_pressure;Samples;Min_cycle;Max_cycle;Signal;HPM_P1;HPM_P2
2020/12/11 00:02:07;;;;;;;12.07;11.07;;;7.50;57.70;;;;;;5033715;28;20214;-64
2020/12/11 00:04:33;;;;;;;12.47;11.33;;;7.50;57.80;;;;;;5038475;28;20281;-64
2020/12/11 00:07:00;;;;;;;12.47;11.27;;;7.50;57.90;;;;;;5036921;28;20666;-64
2020/12/11 00:09:28;;;;;;;12.00;10.97;;;7.40;57.90;;;;;;5036400;28;20202;-64
2020/12/11 00:11:57;;;;;;;12.10;11.07;;;7.40;58.00;;;;;;5036204;28;20229;-65
2020/12/11 00:14:23;;;;;;;11.87;10.87;;;7.40;58.00;;;;;;5039094;28;20229;-65
2020/12/11 00:16:49;;;;;;;12.13;11.03;;;7.50;58.10;;;;;;5036238;28;20225;-64
2020/12/11 00:19:16;;;;;;;12.50;11.40;;;7.50;58.10;;;;;;5036057;28;20211;-61
2020/12/11 00:21:44;;;;;;;12.33;11.23;;;7.50;58.20;;;;;;5033915;28;20236;-65
2020/12/11 00:24:12;;;;;;;11.73;10.73;;;7.50;58.30;;;;;;5035089;28;20583;-65
2020/12/11 00:26:39;;;;;;;12.40;11.30;;;7.50;58.30;;;;;;5036606;28;20240;-65
2020/12/11 00:29:06;;;;;;;12.13;11.03;;;7.50;58.20;;;;;;5038835;28;20281;-65
2020/12/11 00:31:32;;;;;;;12.50;11.43;;;7.50;58.80;;;;;;5035508;28;20225;-64
2020/12/11 00:33:59;;;;;;;13.07;11.90;;;7.60;58.20;;;;;;5033477;28;20241;-63
2020/12/11 00:36:26;;;;;;;11.67;10.67;;;7.60;58.20;;;;;;5039551;28;20210;-64
2020/12/11 00:38:53;;;;;;;11.63;10.63;;;7.60;58.20;;;;;;5041199;28;20328;-67
2020/12/11 00:41:20;;;;;;;11.67;10.67;;;7.60;58.20;;;;;;5038207;28;20261;-65
2020/12/11 00:43:47;;;;;;;10.97;9.97;;;7.70;58.30;;;;;;5039859;28;20216;-63
2020/12/11 00:46:14;;;;;;;9.60;8.80;;;7.70;58.20;;;;;;5041496;28;20210;-64
2020/12/11 00:48:41;;;;;;;9.87;8.97;;;7.70;58.10;;;;;;5042860;28;20209;-63
2020/12/11 00:51:07;;;;;;;8.60;7.90;;;7.70;58.00;;;;;;5032894;28;20222;-65
2020/12/11 00:53:33;;;;;;;7.53;6.93;;;7.80;57.90;;;;;;5034237;28;20203;-65
2020/12/11 00:56:00;;;;;;;8.37;7.67;;;7.80;57.80;;;;;;5036025;28;20210;-64
2020/12/11 00:58:26;;;;;;;7.60;7.00;;;7.80;57.50;;;;;;5035782;28;20218;-65
2020/12/11 01:00:54;;;;;;;8.00;7.30;;;7.80;57.50;;;;;;5036004;28;20660;-64
2020/12/11 01:03:20;;;;;;;7.50;6.90;;;7.90;57.40;;;;;;5037741;28;20642;-64
2020/12/11 01:05:46;;;;;;;8.63;7.93;;;7.90;57.50;;;;;;5038655;28;20206;-63
2020/12/11 01:08:13;;;;;;;9.70;8.80;;;7.90;57.40;;;;;;5035682;28;20198;-65
2020/12/11 01:10:39;;;;;;;9.47;8.67;;;7.90;57.20;;;;;;5036304;28;20203;-66
2020/12/11 01:13:05;;;;;;;9.60;8.70;;;8.00;57.10;;;;;;5029369;28;20248;-64
2020/12/11 01:15:32;;;;;;;8.63;7.83;;;8.00;57.10;;;;;;5032159;28;20226;-62
2020/12/11 01:17:59;;;;;;;8.33;7.63;;;8.00;57.10;;;;;;5036173;28;20221;-65
2020/12/11 01:20:26;;;;;;;9.43;8.60;;;8.00;57.00;;;;;;5037906;28;20729;-67
2020/12/11 01:22:52;;;;;;;9.60;8.80;;;8.00;57.00;;;;;;5035334;28;20692;-65
2020/12/11 01:25:19;;;;;;;9.30;8.50;;;8.00;57.00;;;;;;5032832;28;20328;-63
2020/12/11 01:27:45;;;;;;;9.40;8.50;;;8.00;57.00;;;;;;5038273;28;20210;-65
2020/12/11 01:30:12;;;;;;;9.30;8.50;;;8.00;56.90;;;;;;5035334;28;20203;-65
2020/12/11 01:32:38;;;;;;;9.97;9.07;;;7.90;56.60;;;;;;5034899;28;20225;-65
2020/12/11 01:35:06;;;;;;;9.17;8.37;;;7.90;56.60;;;;;;5037449;28;20595;-64
2020/12/11 01:37:34;;;;;;;9.37;8.57;;;7.90;56.80;;;;;;5035597;28;20198;-64
2020/12/11 01:40:00;;;;;;;8.40;7.70;;;7.80;56.80;;;;;;5033765;28;20195;-64
2020/12/11 01:42:26;;;;;;;9.07;8.33;;;7.80;56.80;;;;;;5036468;28;20237;-63
2020/12/11 01:44:54;;;;;;;9.20;8.40;;;7.80;56.80;;;;;;5035952;28;20210;-65
2020/12/11 01:47:22;;;;;;;9.77;8.87;;;7.80;56.70;;;;;;5037108;28;20208;-63
2020/12/11 01:49:51;;;;;;;9.10;8.30;;;7.80;56.50;;;;;;5033629;28;20292;-64
2020/12/11 01:52:20;;;;;;;9.23;8.50;;;7.70;56.50;;;;;;5036368;28;20225;-64
2020/12/11 01:54:47;;;;;;;8.30;7.60;;;7.70;56.40;;;;;;5034743;28;20210;-62
2020/12/11 01:57:22;;;;;;;8.83;8.10;;;7.60;56.30;;;;;;5037839;28;20201;-63
2020/12/11 01:59:53;;;;;;;8.53;7.83;;;7.60;56.40;;;;;;5035959;28;20559;-64
2020/12/11 02:02:21;;;;;;;8.20;7.50;;;7.50;56.50;;;;;;5035750;28;20302;-62
2020/12/11 02:04:48;;;;;;;8.30;7.60;;;7.50;56.80;;;;;;5037620;28;20218;-65
2020/12/11 02:07:15;;;;;;;8.63;7.90;;;7.50;56.90;;;;;;5035334;28;20556;-64
2020/12/11 02:09:43;;;;;;;8.43;7.73;;;7.50;57.00;;;;;;5036859;28;20228;-63
2020/12/11 02:12:09;;;;;;;8.43;7.67;;;7.50;57.00;;;;;;5035602;28;20222;-65
2020/12/11 02:14:36;;;;;;;8.23;7.53;;;7.50;57.00;;;;;;5036185;28;20675;-66
2020/12/11 02:17:05;;;;;;;8.20;7.50;;;7.50;56.90;;;;;;5035521;28;20205;-62
2020/12/11 02:19:33;;;;;;;8.30;7.60;;;7.50;56.80;;;;;;5039595;28;20210;-62
2020/12/11 02:22:03;;;;;;;8.10;7.40;;;7.50;56.90;;;;;;5037832;28;20219;-61
2020/12/11 02:24:29;;;;;;;8.43;7.73;;;7.50;56.90;;;;;;5034346;28;20210;-61
2020/12/11 02:26:56;;;;;;;8.73;8.03;;;7.50;56.90;;;;;;5037825;28;20210;-63
2020/12/11 02:29:23;;;;;;;8.43;7.73;;;7.60;57.00;;;;;;5039689;28;20210;-62
2020/12/11 02:31:50;;;;;;;9.30;8.53;;;7.60;56.90;;;;;;5041214;28;20233;-64
2020/12/11 02:34:16;;;;;;;8.43;7.70;;;7.60;56.90;;;;;;5045441;28;20537;-63
2020/12/11 02:36:43;;;;;;;8.83;8.07;;;7.60;56.90;;;;;;5041371;28;20217;-65
2020/12/11 02:39:11;;;;;;;10.33;9.33;;;7.60;56.90;;;;;;5052562;28;20197;-62
2020/12/11 02:41:38;;;;;;;9.93;9.03;;;7.60;56.80;;;;;;5040681;28;20233;-65
2020/12/11 02:44:04;;;;;;;10.10;9.20;;;7.50;56.70;;;;;;5039803;28;20203;-64
2020/12/11 02:46:31;;;;;;;10.00;9.10;;;7.50;56.70;;;;;;5039316;28;20216;-64
2020/12/11 02:48:58;;;;;;;11.10;10.07;;;7.50;56.80;;;;;;5039668;28;20210;-64
2020/12/11 02:51:25;;;;;;;11.17;10.17;;;7.50;56.90;;;;;;5037229;28;20242;-63
2020/12/11 02:53:52;;;;;;;12.67;11.47;;;7.50;57.00;;;;;;5037206;28;20210;-63
2020/12/11 02:56:21;;;;;;;12.47;11.37;;;7.50;57.10;;;;;;5038623;28;20734;-64
2020/12/11 02:58:47;;;;;;;13.20;11.93;;;7.40;57.00;;;;;;5040221;28;20202;-61
2020/12/11 03:01:15;;;;;;;13.00;11.80;;;7.40;57.60;;;;;;5038666;28;20217;-64
2020/12/11 03:03:41;;;;;;;13.17;11.97;;;7.30;56.90;;;;;;5041116;28;20678;-61
2020/12/11 03:06:08;;;;;;;13.53;12.33;;;7.30;56.90;;;;;;5039345;28;20245;-61
2020/12/11 03:08:35;;;;;;;13.53;12.23;;;7.20;57.00;;;;;;5038462;28;20237;-65
2020/12/11 03:11:02;;;;;;;13.40;12.13;;;7.20;57.10;;;;;;5015124;28;558876;-66
2020/12/11 03:13:29;;;;;;;13.43;12.13;;;7.10;57.10;;;;;;5039382;28;20578;-64
2020/12/11 03:15:55;;;;;;;11.80;10.70;;;7.00;57.20;;;;;;5036285;28;20210;-64
2020/12/11 03:18:22;;;;;;;11.60;10.53;;;7.00;57.40;;;;;;5038774;28;20309;-65
2020/12/11 03:20:49;;;;;;;10.90;9.90;;;7.00;57.60;;;;;;5038592;28;20214;-62
2020/12/11 03:23:15;;;;;;;11.63;10.53;;;6.90;57.70;;;;;;5033950;28;20213;-60
2020/12/11 03:25:41;;;;;;;11.87;10.77;;;7.00;57.90;;;;;;5033131;28;20218;-62
2020/12/11 03:28:08;;;;;;;11.77;10.67;;;6.90;57.80;;;;;;5035149;28;20594;-65
2020/12/11 03:30:35;;;;;;;11.83;10.73;;;6.90;57.70;;;;;;5037002;28;20203;-61
2020/12/11 03:33:01;;;;;;;12.50;11.40;;;6.90;57.80;;;;;;5036517;28;20574;-62
2020/12/11 03:35:28;;;;;;;12.50;11.30;;;6.90;57.80;;;;;;5037089;28;20214;-62
2020/12/11 03:37:54;;;;;;;11.37;10.27;;;6.80;57.80;;;;;;5038516;28;20225;-63
2020/12/11 03:40:20;;;;;;;12.63;11.37;;;6.80;57.90;;;;;;5039806;28;20203;-64
2020/12/11 03:42:47;;;;;;;12.10;11.00;;;6.80;57.90;;;;;;5038127;28;20230;-64
2020/12/11 03:45:13;;;;;;;13.00;11.70;;;6.80;58.00;;;;;;5037744;28;20214;-60
2020/12/11 03:47:41;;;;;;;14.00;12.70;;;6.70;58.00;;;;;;5036759;28;20605;-63
2020/12/11 03:50:07;;;;;;;12.50;11.30;;;6.70;58.10;;;;;;5038338;28;20216;-65
2020/12/11 03:52:34;;;;;;;13.47;12.27;;;6.70;58.00;;;;;;5037266;28;20695;-65
2020/12/11 03:55:00;;;;;;;14.20;12.87;;;6.70;57.90;;;;;;5035717;28;20198;-63
2020/12/11 03:57:26;;;;;;;14.07;12.77;;;6.70;57.90;;;;;;5037839;28;20289;-62
2020/12/11 03:59:53;;;;;;;14.60;13.20;;;6.60;58.40;;;;;;5037393;28;20217;-63
2020/12/11 04:02:19;;;;;;;14.63;13.13;;;6.60;57.70;;;;;;5037807;28;20221;-61
2020/12/11 04:04:47;;;;;;;15.33;13.90;;;6.50;57.70;;;;;;5037044;28;20209;-66
2020/12/11 04:07:14;;;;;;;16.00;14.50;;;6.40;57.60;;;;;;5039033;28;20206;-63
2020/12/11 04:09:40;;;;;;;16.27;14.77;;;6.30;57.60;;;;;;5038739;28;20206;-64
2020/12/11 04:12:07;;;;;;;16.10;14.50;;;6.20;57.60;;;;;;5036110;28;20238;-63
2020/12/11 04:14:33;;;;;;;16.07;14.50;;;6.10;57.70;;;;;;5033480;28;20263;-62
2020/12/11 04:17:00;;;;;;;14.70;13.20;;;6.00;57.70;;;;;;5037560;28;20199;-63
2020/12/11 04:19:26;;;;;;;14.13;12.77;;;5.90;57.80;;;;;;5038265;28;20293;-62
2020/12/11 04:21:55;;;;;;;14.43;13.03;;;5.80;57.90;;;;;;5036838;28;20226;-62
2020/12/11 04:24:23;;;;;;;12.53;11.40;;;5.80;58.10;;;;;;5036352;28;20685;-63
2020/12/11 04:26:49;;;;;;;14.70;13.20;;;5.60;58.10;;;;;;5035970;28;20218;-64
2020/12/11 04:29:16;;;;;;;15.20;13.70;;;5.60;58.20;;;;;;5035087;28;20213;-66
2020/12/11 04:31:43;;;;;;;13.47;12.23;;;5.50;58.20;;;;;;5036768;28;20230;-62
2020/12/11 04:34:09;;;;;;;13.80;12.40;;;5.40;58.30;;;;;;5037492;28;20665;-64
2020/12/11 04:36:36;;;;;;;14.73;13.23;;;5.40;58.40;;;;;;5036522;28;20584;-65
2020/12/11 04:39:04;;;;;;;13.73;12.37;;;5.30;58.50;;;;;;5038164;28;20214;-64
2020/12/11 04:41:38;;;;;;;14.20;12.80;;;5.30;58.60;;;;;;5035954;28;20222;-64
2020/12/11 04:44:08;;;;;;;12.53;11.33;;;5.20;58.70;;;;;;5037268;28;20204;-62
2020/12/11 04:46:35;;;;;;;12.30;11.17;;;5.10;58.70;;;;;;5035450;28;20220;-62
2020/12/11 04:49:02;;;;;;;13.87;12.57;;;5.10;58.80;;;;;;5035816;28;20283;-62
2020/12/11 04:51:31;;;;;;;14.03;12.63;;;5.10;58.90;;;;;;5041838;28;20226;-66
2020/12/11 04:54:01;;;;;;;12.60;11.43;;;5.00;59.00;;;;;;5041237;28;20228;-63
2020/12/11 04:56:28;;;;;;;13.83;12.43;;;5.00;59.00;;;;;;5040141;28;20217;-63
2020/12/11 04:58:56;;;;;;;13.63;12.23;;;5.00;59.10;;;;;;5038763;28;20244;-63
2020/12/11 05:01:29;;;;;;;12.77;11.57;;;4.90;59.10;;;;;;5038425;28;20658;-61
2020/12/11 05:03:57;;;;;;;14.23;12.73;;;4.90;59.30;;;;;;5039849;28;20205;-64
2020/12/11 05:06:24;;;;;;;13.23;11.93;;;4.90;59.20;;;;;;5037993;28;20217;-68
2020/12/11 05:09:11;;;;;;;14.70;13.30;;;4.90;59.30;;;;;;5035675;28;20286;-64
2020/12/11 05:11:40;;;;;;;12.20;11.03;;;4.90;59.50;;;;;;5036772;28;20230;-62
2020/12/11 05:14:22;;;;;;;12.10;10.80;;;4.90;59.50;;;;;;5035248;28;20591;-63
2020/12/11 05:17:03;;;;;;;11.87;10.60;;;4.90;59.80;;;;;;5037051;28;20206;-63
2020/12/11 05:19:32;;;;;;;14.30;12.80;;;4.90;59.90;;;;;;5036219;28;20220;-63
2020/12/11 05:22:13;;;;;;;14.83;13.20;;;4.90;59.80;;;;;;5035805;28;20222;-64
2020/12/11 05:24:45;;;;;;;13.33;11.97;;;5.00;59.80;;;;;;5034485;28;20583;-65
2020/12/11 05:27:32;;;;;;;13.83;12.23;;;5.00;59.70;;;;;;5040506;28;20248;-63
2020/12/11 05:30:00;;;;;;;13.70;12.30;;;5.00;59.70;;;;;;5037982;28;20225;-64
2020/12/11 05:32:38;;;;;;;13.20;11.87;;;5.00;59.50;;;;;;5038288;28;20523;-65
2020/12/11 05:35:07;;;;;;;13.10;11.80;;;5.00;59.50;;;;;;5038460;28;20253;-64
2020/12/11 05:37:50;;;;;;;12.13;10.93;;;5.00;59.60;;;;;;5041319;28;20203;-65
2020/12/11 05:40:18;;;;;;;13.00;11.67;;;5.00;59.70;;;;;;5041348;28;20585;-64
2020/12/11 05:43:12;;;;;;;14.17;12.77;;;5.00;59.60;;;;;;5037138;28;20218;-65
2020/12/11 05:45:48;;;;;;;12.43;11.23;;;5.00;59.70;;;;;;5034337;28;20202;-63
2020/12/11 05:48:14;;;;;;;13.07;11.67;;;5.00;59.70;;;;;;5036469;28;20213;-61
2020/12/11 05:50:41;;;;;;;13.80;12.40;;;5.00;59.70;;;;;;5036311;28;20206;-62
2020/12/11 05:53:07;;;;;;;14.13;12.70;;;5.00;59.80;;;;;;5038586;28;20236;-64
2020/12/11 05:55:34;;;;;;;13.10;11.70;;;5.00;59.90;;;;;;5039809;28;20636;-65
2020/12/11 05:58:02;;;;;;;12.73;11.40;;;5.00;59.90;;;;;;5043295;28;20202;-65
2020/12/11 06:00:29;;;;;;;12.77;11.57;;;5.00;59.90;;;;;;5041646;28;20212;-64
2020/12/11 06:02:56;;;;;;;12.77;11.50;;;5.00;60.00;;;;;;5038981;28;20230;-66
2020/12/11 06:05:25;;;;;;;13.10;11.70;;;5.00;60.20;;;;;;5041984;28;20205;-67
2020/12/11 06:07:52;;;;;;;14.03;12.53;;;5.00;60.20;;;;;;5044902;28;20293;-65
2020/12/11 06:10:22;;;;;;;14.20;12.80;;;5.10;60.10;;;;;;5039043;28;20665;-67
2020/12/11 06:12:51;;;;;;;13.13;11.83;;;5.10;60.10;;;;;;5040544;28;20288;-66
2020/12/11 06:15:37;;;;;;;11.97;10.70;;;5.10;60.00;;;;;;5038946;28;20206;-63
2020/12/11 06:18:09;;;;;;;14.13;12.67;;;5.10;60.20;;;;;;5040737;28;20208;-61
2020/12/11 06:20:36;;;;;;;14.03;12.57;;;5.10;60.10;;;;;;5039099;28;20718;-65
2020/12/11 06:23:22;;;;;;;14.83;13.27;;;5.10;60.00;;;;;;5036780;28;20226;-64
2020/12/11 06:25:51;;;;;;;13.80;12.40;;;5.10;60.20;;;;;;5039288;28;20194;-65
2020/12/11 06:28:42;;;;;;;17.97;13.33;;;5.10;60.10;;;;;;5044762;28;20229;-64
2020/12/11 06:31:12;;;;;;;23.13;14.47;;;5.10;60.20;;;;;;5037879;28;20221;-64
2020/12/11 06:33:41;;;;;;;14.23;12.73;;;5.20;60.20;;;;;;5036372;28;20225;-65
2020/12/11 06:36:08;;;;;;;15.53;13.73;;;5.20;60.30;;;;;;5039195;28;20233;-65
2020/12/11 06:38:48;;;;;;;23.23;14.90;;;5.20;60.30;;;;;;5038642;28;20198;-65
2020/12/11 06:41:38;;;;;;;16.07;12.47;;;5.20;60.40;;;;;;5037838;28;20575;-64
2020/12/11 06:44:17;;;;;;;17.73;12.37;;;5.20;60.20;;;;;;5039712;28;20205;-66
2020/12/11 06:47:06;;;;;;;14.87;12.63;;;5.20;60.30;;;;;;5037142;28;20293;-65
2020/12/11 06:49:33;;;;;;;15.20;13.60;;;5.30;60.30;;;;;;5039847;28;20199;-65
2020/12/11 06:52:13;;;;;;;16.80;15.10;;;5.30;60.10;;;;;;5037749;28;20240;-65
2020/12/11 06:55:00;;;;;;;15.10;13.50;;;5.30;60.10;;;;;;5036499;28;20581;-65
2020/12/11 06:57:40;;;;;;;15.10;13.40;;;5.30;60.00;;;;;;5027172;28;20221;-65
2020/12/11 07:00:37;;;;;;;17.60;13.87;;;5.30;60.10;;;;;;5037409;28;20206;-64
2020/12/11 07:03:22;;;;;;;15.63;12.33;;;5.20;60.20;;;;;;5037793;28;20312;-66
2020/12/11 07:06:10;;;;;;;15.70;12.80;;;5.20;60.20;;;;;;5033661;28;20206;-65
2020/12/11 07:08:37;;;;;;;16.60;14.90;;;5.20;60.40;;;;;;5038149;28;20594;-65
2020/12/11 07:11:10;;;;;;;15.30;13.70;;;5.30;60.40;;;;;;5037154;28;20213;-66
2020/12/11 07:13:45;;;;;;;15.33;13.83;;;5.30;60.30;;;;;;5038235;28;20241;-65
2020/12/11 07:16:13;;;;;;;15.33;13.83;;;5.30;60.10;;;;;;5036946;28;20202;-66
2020/12/11 07:18:43;;;;;;;15.07;13.57;;;5.30;60.10;;;;;;5039329;28;20749;-66
2020/12/11 07:21:10;;;;;;;15.03;13.53;;;5.30;60.20;;;;;;5037253;28;20207;-65
2020/12/11 07:23:36;;;;;;;14.30;12.87;;;5.30;60.20;;;;;;5037925;28;20233;-66
2020/12/11 07:26:05;;;;;;;14.10;12.70;;;5.30;60.20;;;;;;5037210;28;20207;-64
2020/12/11 07:28:32;;;;;;;15.33;13.30;;;5.30;60.40;;;;;;5038448;28;20206;-64
2020/12/11 07:30:59;;;;;;;15.53;13.50;;;5.30;60.40;;;;;;5037677;28;20213;-66
2020/12/11 07:33:34;;;;;;;17.50;15.10;;;5.30;60.30;;;;;;5037218;28;20226;-66
2020/12/11 07:36:05;;;;;;;16.73;14.37;;;5.30;60.40;;;;;;5032467;28;20248;-65
2020/12/11 07:38:32;;;;;;;14.53;12.97;;;5.40;60.40;;;;;;5036942;28;20209;-66
2020/12/11 07:41:03;;;;;;;12.90;11.60;;;5.40;60.40;;;;;;5037981;28;20232;-65
2020/12/11 07:43:30;;;;;;;15.03;13.50;;;5.40;60.50;;;;;;5039605;28;20259;-65
2020/12/11 07:45:57;;;;;;;17.20;13.50;;;5.50;60.60;;;;;;5037779;28;20217;-66
2020/12/11 07:48:23;;;;;;;13.87;12.43;;;5.50;60.70;;;;;;5039759;28;20263;-65
2020/12/11 07:50:49;;;;;;;25.70;13.97;;;5.60;60.90;;;;;;5036095;28;20282;-66
2020/12/11 07:53:17;;;;;;;14.70;13.07;;;5.60;60.90;;;;;;5035519;28;20272;-65
2020/12/11 07:55:43;;;;;;;15.23;12.93;;;5.70;61.00;;;;;;5037046;28;20201;-65
2020/12/11 07:58:09;;;;;;;21.73;13.73;;;5.80;61.00;;;;;;5033286;28;20683;-66
2020/12/11 08:00:38;;;;;;;14.50;13.00;;;5.80;60.90;;;;;;5066487;22;20256;-64
2020/12/11 08:03:07;;;;;;;19.10;13.17;;;5.90;60.70;;;;;;5073558;28;20227;-63
2020/12/11 08:05:39;;;;;;;14.97;12.63;;;6.00;60.70;;;;;;5076888;28;20665;-64
2020/12/11 08:08:07;;;;;;;18.27;12.57;;;6.00;60.50;;;;;;5075996;28;20282;-64
2020/12/11 08:10:41;;;;;;;14.03;11.73;;;6.10;60.40;;;;;;5078476;28;20677;-65
2020/12/11 08:13:13;;;;;;;13.57;11.53;;;6.10;60.50;;;;;;5074227;28;20243;-63
2020/12/11 08:15:42;;;;;;;13.63;12.03;;;6.20;60.40;;;;;;5075808;28;20610;-63
2020/12/11 08:18:22;;;;;;;12.80;11.47;;;6.30;60.20;;;;;;5071346;28;20566;-63
2020/12/11 08:20:52;;;;;;;14.27;12.77;;;6.30;59.90;;;;;;5074348;28;20674;-65
2020/12/11 08:23:39;;;;;;;14.43;12.87;;;6.40;59.90;;;;;;5076595;28;20212;-64
2020/12/11 08:26:10;;;;;;;13.70;12.40;;;6.40;59.70;;;;;;5069061;28;20278;-60
2020/12/11 08:28:38;;;;;;;12.70;11.40;;;6.40;59.50;;;;;;5068903;28;20302;-58
2020/12/11 08:31:20;;;;;;;14.47;12.97;;;6.40;59.60;;;;;;5072205;28;20360;-60
2020/12/11 08:33:48;;;;;;;14.70;13.20;;;6.40;59.50;;;;;;5068649;28;20231;-61
2020/12/11 08:36:22;;;;;;;13.43;11.60;;;6.40;59.30;;;;;;5073735;28;20204;-61
2020/12/11 08:39:19;;;;;;;14.07;12.57;;;6.40;59.30;;;;;;5074567;28;20298;-61
2020/12/11 08:50:31;;;;;;;12.43;11.23;;;6.40;59.50;;;;;;5067119;28;20282;-61
2020/12/11 08:53:03;;;;;;;12.87;11.57;;;6.40;59.50;;;;;;5073269;28;20228;-60
2020/12/11 08:55:29;;;;;;;13.27;11.93;;;6.50;59.50;;;;;;5074002;28;20210;-61
2020/12/11 08:57:57;;;;;;;12.60;11.40;;;6.50;59.50;;;;;;5071309;28;20219;-61
2020/12/11 09:00:23;;;;;;;12.53;11.33;;;6.60;59.50;;;;;;5069806;28;20728;-59
2020/12/11 09:02:50;;;;;;;12.30;11.10;;;6.60;59.40;;;;;;5073547;28;20197;-60
2020/12/11 09:05:16;;;;;;;12.47;11.27;;;6.70;59.50;;;;;;5075427;28;20202;-61
2020/12/11 09:07:42;;;;;;;12.07;10.90;;;6.70;59.40;;;;;;5073947;28;20665;-58
2020/12/11 09:10:09;;;;;;;11.97;10.77;;;6.80;59.30;;;;;;5075738;28;20232;-61
2020/12/11 09:12:36;;;;;;;11.93;10.77;;;6.80;59.30;;;;;;5072532;28;20766;-60
2020/12/11 09:15:08;;;;;;;12.20;11.00;;;6.90;59.10;;;;;;5073188;28;20208;-61
2020/12/11 09:17:35;;;;;;;12.60;11.40;;;6.90;59.10;;;;;;5077311;28;20317;-61
2020/12/11 09:20:01;;;;;;;12.17;10.97;;;6.90;59.00;;;;;;5073006;28;20220;-62
2020/12/11 09:22:28;;;;;;;11.87;10.67;;;7.00;59.10;;;;;;5074200;28;20593;-60
2020/12/11 09:24:54;;;;;;;11.40;10.33;;;7.00;59.00;;;;;;5074553;28;20274;-62
2020/12/11 09:27:21;;;;;;;11.57;10.47;;;7.00;59.00;;;;;;5072606;28;20224;-62
2020/12/11 09:29:49;;;;;;;11.27;10.27;;;7.10;59.00;;;;;;5070602;28;20233;-61
2020/12/11 09:32:22;;;;;;;11.50;10.40;;;7.10;59.00;;;;;;5073600;28;20231;-61
2020/12/11 09:34:49;;;;;;;10.93;9.93;;;7.20;59.10;;;;;;5077330;28;20211;-61
2020/12/11 09:37:16;;;;;;;11.13;10.13;;;7.30;59.10;;;;;;5076594;28;20319;-60
2020/12/11 09:39:43;;;;;;;10.57;9.53;;;7.40;59.00;;;;;;5077747;28;20223;-62
2020/12/11 09:42:27;;;;;;;11.17;10.07;;;7.50;58.80;;;;;;5078932;28;20543;-62
2020/12/11 09:47:52;;;;;;;10.13;9.23;;;7.60;58.50;;;;;;5079208;28;20223;-63
2020/12/11 09:50:37;;;;;;;10.97;9.07;;;7.70;58.40;;;;;;5077554;28;20808;-62
2020/12/11 09:53:12;;;;;;;11.67;10.47;;;7.70;58.50;;;;;;5077266;28;20228;-62
2020/12/11 09:55:41;;;;;;;11.23;10.13;;;7.80;58.30;;;;;;5076914;28;20212;-61
2020/12/11 09:58:08;;;;;;;9.73;8.73;;;7.90;58.00;;;;;;5076792;28;20197;-67
2020/12/11 10:00:34;;;;;;;10.97;9.87;;;8.00;58.00;;;;;;5076868;28;20327;-62
2020/12/11 10:03:05;;;;;;;10.67;9.67;;;8.00;58.00;;;;;;5078162;28;20265;-62
2020/12/11 10:05:31;;;;;;;9.80;8.90;;;8.00;58.00;;;;;;5077889;28;20196;-63
2020/12/11 10:07:58;;;;;;;12.13;10.97;;;8.00;57.90;;;;;;5080969;28;20204;-61
2020/12/11 10:10:24;;;;;;;10.07;9.07;;;8.10;57.70;;;;;;5072906;28;20233;-64
2020/12/11 10:12:51;;;;;;;9.93;8.93;;;8.20;57.70;;;;;;5078725;28;20755;-64
2020/12/11 10:15:20;;;;;;;10.50;9.50;;;8.20;57.70;;;;;;5078891;28;20355;-63
2020/12/11 10:17:47;;;;;;;10.77;9.77;;;8.20;57.50;;;;;;5080118;28;20274;-63
2020/12/11 10:20:18;;;;;;;10.47;9.47;;;8.30;57.40;;;;;;5074592;28;20243;-63
2020/12/11 10:22:48;;;;;;;9.97;9.03;;;8.30;57.20;;;;;;5079871;28;20482;-63
2020/12/11 10:25:15;;;;;;;9.63;8.73;;;8.30;57.20;;;;;;5077932;28;20198;-63
2020/12/11 10:27:41;;;;;;;10.33;9.33;;;8.40;57.20;;;;;;5079144;28;20733;-63
2020/12/11 10:30:08;;;;;;;10.03;9.03;;;8.40;57.10;;;;;;5073791;28;20220;-65
2020/12/11 10:32:35;;;;;;;8.60;7.90;;;8.40;57.10;;;;;;5075656;28;20285;-65
2020/12/11 10:35:01;;;;;;;9.10;8.30;;;8.40;57.30;;;;;;5075255;28;20200;-64
2020/12/11 10:37:28;;;;;;;9.60;8.67;;;8.50;57.30;;;;;;5078503;28;20674;-64
2020/12/11 10:39:55;;;;;;;8.80;8.00;;;8.60;57.30;;;;;;5076713;28;20221;-62
2020/12/11 10:42:21;;;;;;;9.60;8.80;;;8.70;57.40;;;;;;5080100;28;20383;-62
2020/12/11 10:44:48;;;;;;;9.60;8.67;;;8.90;57.50;;;;;;5075924;28;20204;-60
2020/12/11 10:47:14;;;;;;;9.27;8.37;;;9.10;57.40;;;;;;5073416;28;20251;-62
2020/12/11 10:49:41;;;;;;;9.00;8.20;;;9.30;57.60;;;;;;5080124;28;20255;-61
2020/12/11 10:52:08;;;;;;;9.57;8.67;;;9.50;57.60;;;;;;5073050;28;20310;-61
2020/12/11 10:54:35;;;;;;;9.10;8.30;;;9.80;57.10;;;;;;5071508;28;20205;-62
2020/12/11 10:57:02;;;;;;;8.60;7.80;;;10.00;56.50;;;;;;5072001;28;20625;-63
2020/12/11 10:59:28;;;;;;;9.17;8.27;;;10.20;55.90;;;;;;5076150;28;20751;-61
2020/12/11 11:01:54;;;;;;;8.43;7.73;;;10.30;55.50;;;;;;5075273;28;20291;-61
2020/12/11 11:04:21;;;;;;;9.20;8.30;;;10.40;55.10;;;;;;5073751;28;20275;-61
2020/12/11 11:06:52;;;;;;;10.07;8.67;;;10.40;54.70;;;;;;5075463;28;20208;-61
2020/12/11 11:12:11;;;;;;;8.77;7.97;;;10.20;54.10;;;;;;5068204;28;20687;-62
2020/12/11 11:23:33;;;;;;;9.47;8.47;;;9.60;54.20;;;;;;5015400;28;20199;-60
2020/12/11 11:28:44;;;;;;;9.23;8.37;;;9.40;54.40;;;;;;5050050;28;20282;-60
2020/12/11 11:31:12;;;;;;;9.87;8.90;;;9.30;54.40;;;;;;5075137;28;20883;-61
2020/12/11 11:33:38;;;;;;;8.20;7.50;;;9.20;54.50;;;;;;5078638;28;20224;-59
2020/12/11 11:36:05;;;;;;;9.00;8.20;;;9.10;54.70;;;;;;5077623;28;20208;-60
2020/12/11 11:38:31;;;;;;;9.07;8.20;;;9.10;55.00;;;;;;5074336;28;20212;-60
2020/12/11 11:41:01;;;;;;;9.40;8.50;;;9.00;55.00;;;;;;5080794;28;20229;-58
2020/12/11 11:43:41;;;;;;;8.23;7.53;;;9.00;55.00;;;;;;5076382;28;20209;-59
2020/12/11 11:46:08;;;;;;;7.97;7.27;;;9.00;55.10;;;;;;5079616;28;20226;-62
2020/12/11 11:48:39;;;;;;;8.33;7.57;;;9.00;55.20;;;;;;5075413;28;20866;-59
2020/12/11 11:51:09;;;;;;;8.20;7.03;;;9.00;55.40;;;;;;5077722;28;20224;-60
2020/12/11 11:53:35;;;;;;;7.90;7.20;;;9.00;55.60;;;;;;5075003;28;20624;-60
2020/12/11 11:56:01;;;;;;;7.90;7.20;;;9.10;55.60;;;;;;5074731;28;20566;-59
2020/12/11 11:58:27;;;;;;;8.13;7.33;;;9.20;55.70;;;;;;5075299;28;20657;-61
2020/12/11 12:00:54;;;;;;;8.40;7.60;;;9.30;55.80;;;;;;5075512;28;20239;-58
2020/12/11 12:03:24;;;;;;;7.53;6.83;;;9.50;55.80;;;;;;5074697;28;20209;-60
2020/12/11 12:05:51;;;;;;;8.20;7.40;;;9.60;55.50;;;;;;5072873;28;20213;-57
2020/12/11 12:08:20;;;;;;;7.90;7.20;;;9.70;55.50;;;;;;5074844;28;20216;-60
2020/12/11 12:10:47;;;;;;;8.70;7.90;;;9.80;55.60;;;;;;5066869;28;20616;-65
2020/12/11 12:13:13;;;;;;;9.20;8.40;;;10.00;55.70;;;;;;5070815;28;20216;-63
2020/12/11 12:15:40;;;;;;;8.97;8.17;;;10.10;55.60;;;;;;5075319;28;20236;-65
2020/12/11 12:18:09;;;;;;;9.60;8.70;;;10.20;55.50;;;;;;5075654;28;20844;-65
2020/12/11 12:20:48;;;;;;;9.83;8.87;;;10.40;55.50;;;;;;5068767;28;20764;-66
2020/12/11 12:28:56;;;;;;;9.40;8.50;;;10.90;55.00;;;;;;5075883;28;20697;-65
2020/12/11 12:31:28;;;;;;;9.03;8.23;;;11.00;54.70;;;;;;5074245;28;20232;-65
2020/12/11 12:34:33;;;;;;;9.63;8.73;;;11.10;54.20;;;;;;5074508;28;20236;-65
2020/12/11 12:37:22;;;;;;;9.80;8.80;;;11.30;53.80;;;;;;5072853;28;20209;-65
2020/12/11 12:43:05;;;;;;;13.60;12.20;;;11.20;53.40;;;;;;5075837;28;20240;-65
2020/12/11 12:45:32;;;;;;;11.10;9.63;;;11.20;53.30;;;;;;5074282;28;20220;-66
2020/12/11 12:47:58;;;;;;;10.80;9.77;;;11.20;53.00;;;;;;5072959;28;20308;-65
2020/12/11 12:50:25;;;;;;;10.13;9.13;;;11.10;52.70;;;;;;5072361;28;20729;-65
2020/12/11 12:52:52;;;;;;;9.50;8.70;;;11.00;52.50;;;;;;5072519;28;20780;-65
2020/12/11 12:55:24;;;;;;;9.60;8.60;;;10.70;52.40;;;;;;5073559;28;20203;-66
2020/12/11 12:57:54;;;;;;;9.67;8.87;;;10.60;52.40;;;;;;5074070;28;20205;-65
2020/12/11 13:00:26;;;;;;;8.77;7.97;;;10.30;52.30;;;;;;5071661;28;20314;-66
2020/12/11 13:03:20;;;;;;;9.67;8.87;;;10.10;52.50;;;;;;5068674;28;20267;-65
2020/12/11 13:05:47;;;;;;;10.97;9.90;;;9.90;52.70;;;;;;5072704;28;20212;-65
2020/12/11 13:08:14;;;;;;;10.50;9.50;;;9.60;52.90;;;;;;5076956;28;20235;-65
2020/12/11 13:10:41;;;;;;;10.80;9.77;;;9.40;52.90;;;;;;5073121;28;20224;-64
2020/12/11 13:13:08;;;;;;;10.27;9.37;;;9.20;53.20;;;;;;5074755;28;20235;-65
2020/12/11 13:15:38;;;;;;;11.73;10.53;;;9.00;53.50;;;;;;5072988;28;20219;-64
2020/12/11 13:18:05;;;;;;;11.07;10.07;;;8.90;53.70;;;;;;5072381;28;20221;-65
2020/12/11 13:20:35;;;;;;;11.03;10.03;;;8.70;53.90;;;;;;5073928;28;20708;-65
2020/12/11 13:26:14;;;;;;;10.47;9.47;;;8.50;54.20;;;;;;5029536;28;20972;-65
2020/12/11 13:28:40;;;;;;;10.43;9.53;;;8.30;54.30;;;;;;5072496;28;20756;-64
2020/12/11 13:31:10;;;;;;;11.17;10.07;;;8.20;54.50;;;;;;5068612;28;20224;-64
2020/12/11 13:33:37;;;;;;;10.67;9.67;;;8.00;54.60;;;;;;5070240;28;20662;-65